Data for 07/22/2014

Time Sea-Level Adjusted Pressure Absolute Pressure Temperature Relative Humidity Dew Point   
(mb) (inHg) (mb) (inHg) (C) (F) (%) (C) (F)
00:05 1022 30.18 851 25.13 19 66.1 54 9.5 49
00:10 1022 30.18 851 25.13 18.9 66 54 9.4 49
00:15 1022 30.18 851 25.13 18.8 65.8 54 9.5 49.1
00:20 1022 30.18 851 25.13 19.1 66.4 51 8.9 48.1
00:25 1022 30.18 851 25.13 19.2 66.5 54 9.7 49.4
00:30 1022 30.18 851 25.13 18.8 65.9 56 9.9 49.8
00:35 1022 30.18 852 25.16 18.7 65.6 57 10.1 50.3
00:40 1022 30.18 852 25.16 18.6 65.5 59 10.5 50.9
00:45 1022 30.18 851 25.13 18.4 65 60 10.6 51.1
00:50 1022 30.18 851 25.13 18.1 64.6 61 10.6 51.1
00:55 1022 30.18 851 25.13 17.9 64.3 62 10.7 51.2
01:00 1022 30.18 851 25.13 17.8 64.1 63 10.8 51.4
01:05 1022 30.18 851 25.13 17.7 63.9 64 10.8 51.5
01:10 1022 30.18 852 25.16 17.6 63.7 65 11 51.8
01:15 1022 30.18 852 25.16 17.7 63.8 63 10.7 51.2
01:20 1022 30.18 852 25.16 17.3 63.2 64 10.5 51
01:25 1022 30.18 852 25.16 16.9 62.3 64 10.1 50.1
01:30 1022 30.18 852 25.16 16.5 61.7 64 9.8 49.6
01:35 1022 30.18 852 25.16 16.1 61 66 9.8 49.7
01:40 1022 30.18 852 25.16 15.8 60.4 67 9.7 49.5
01:45 1022 30.18 852 25.16 15.7 60.2 67 9.6 49.3
01:50 1022 30.18 852 25.16 15.7 60.2 66 9.5 49
01:55 1023 30.21 852 25.16 15.7 60.3 67 9.7 49.4
02:00 1023 30.21 852 25.16 15.6 60 66 9.4 48.9
02:05 1023 30.21 852 25.16 15.5 59.9 66 9.3 48.8
02:10 1023 30.21 852 25.16 15.8 60.4 66 9.6 49.2
02:15 1023 30.21 852 25.16 15.9 60.7 66 9.7 49.5
02:20 1023 30.21 852 25.16 15.7 60.3 66 9.5 49
02:25 1023 30.21 852 25.16 15.6 60 66 9.2 48.6
02:30 1023 30.21 852 25.16 15.6 60 65 9.2 48.5
02:35 1023 30.21 852 25.16 15.4 59.8 66 9.2 48.6
02:40 1023 30.21 852 25.16 15 59 69 9.3 48.8
02:45 1023 30.21 852 25.16 14.5 58.1 71 9.3 48.7
02:50 1023 30.21 852 25.16 14.3 57.7 70 9 48.2
02:55 1023 30.21 852 25.16 15 58.9 67 9 48.1
03:00 1023 30.21 852 25.16 15.3 59.5 67 9.3 48.7
03:05 1023 30.21 852 25.16 14.7 58.4 69 9.2 48.6
03:10 1023 30.21 852 25.16 14.4 57.9 70 9 48.2
03:15 1023 30.21 852 25.16 14.4 57.9 70 9 48.2
03:20 1023 30.21 852 25.16 14.4 58 68 8.7 47.7
03:25 1023 30.21 852 25.16 14.9 58.8 66 8.8 47.8
03:30 1023 30.21 852 25.16 15.1 59.2 64 8.5 47.2
03:35 1023 30.21 853 25.19 15.2 59.4 66 9.1 48.3
03:40 1023 30.21 853 25.19 14.7 58.4 68 8.9 48.1
03:45 1023 30.21 853 25.19 15 59.1 66 8.7 47.7
03:50 1024 30.24 853 25.19 15.1 59.2 67 9 48.3
03:55 1024 30.24 853 25.19 14.9 58.9 68 9.1 48.3
04:00 1024 30.24 853 25.19 14.5 58.1 69 9 48.2
04:05 1024 30.24 853 25.19 14.3 57.7 70 8.9 48
04:10 1024 30.24 853 25.19 14.2 57.5 70 8.9 48
04:15 1024 30.24 853 25.19 13.9 57 73 9.1 48.4
04:20 1024 30.24 853 25.19 13.6 56.4 74 9 48.2
04:25 1024 30.24 853 25.19 13.8 56.8 73 9.1 48.3
04:30 1024 30.24 853 25.19 14.1 57.4 70 8.8 47.9
04:35 1024 30.24 853 25.19 14.1 57.4 70 8.9 48
04:40 1024 30.24 853 25.19 14.3 57.7 70 8.8 47.9
04:45 1024 30.24 853 25.19 14.4 57.8 69 8.8 47.8
04:50 1024 30.24 853 25.19 14.4 57.9 70 9 48.2
04:55 1024 30.24 853 25.19 14.3 57.7 69 8.7 47.7
05:00 1024 30.24 853 25.19 14.5 58.2 69 8.9 48
05:05 1024 30.24 853 25.19 14.5 58.1 69 8.9 48.1
05:10 1024 30.24 853 25.19 14.4 58 70 9.1 48.5
05:15 1024 30.24 853 25.19 14.2 57.6 72 9.2 48.6
05:20 1024 30.24 853 25.19 14.1 57.4 72 9.3 48.7
05:25 1024 30.24 853 25.19 14 57.1 73 9.3 48.8
05:30 1024 30.24 853 25.19 14 57.1 72 9.1 48.4
05:35 1024 30.24 853 25.19 14.3 57.7 71 9.2 48.6
05:40 1024 30.24 853 25.19 14.4 58 69 8.9 48.1
05:45 1024 30.24 853 25.19 14.7 58.4 70 9.3 48.7
05:50 1024 30.24 853 25.19 14.6 58.3 71 9.4 49
05:55 1024 30.24 853 25.19 14.6 58.2 70 9.2 48.6
06:00 1024 30.24 853 25.19 14.7 58.4 69 9.2 48.6
06:05 1024 30.24 853 25.19 14.9 58.7 69 9.2 48.6
06:10 1024 30.24 853 25.19 15 59 68 9.3 48.7
06:15 1024 30.24 853 25.19 15.1 59.1 69 9.4 48.9
06:20 1024 30.24 853 25.19 15 59 69 9.4 49
06:25 1024 30.24 853 25.19 15.1 59.1 69 9.4 48.9
06:30 1024 30.24 853 25.19 15.2 59.3 68 9.3 48.7
06:35 1024 30.24 853 25.19 15.5 59.9 66 9.3 48.8
06:40 1024 30.24 854 25.22 16.1 61 64 9.3 48.7
06:45 1024 30.24 854 25.22 16.9 62.5 63 9.9 49.9
06:50 1024 30.24 854 25.22 17.5 63.6 59 9.4 48.9
06:55 1024 30.24 854 25.22 18.1 64.6 56 9.4 48.9
07:00 1025 30.27 854 25.22 18.8 65.8 54 9.3 48.8
07:05 1025 30.27 854 25.22 19.4 67 53 9.6 49.3
07:10 1025 30.27 854 25.22 19.3 66.7 54 9.8 49.7
07:15 1025 30.27 854 25.22 18.7 65.6 56 10 49.9
07:20 1025 30.27 854 25.22 19.2 66.6 53 9.5 49.1
07:25 1025 30.27 854 25.22 19.7 67.4 52 9.6 49.3
07:30 1025 30.27 854 25.22 20.1 68.2 50 9.5 49.1
07:35 1025 30.27 854 25.22 20 68 51 9.8 49.7
07:40 1025 30.27 854 25.22 20.1 68.2 51 9.8 49.6
07:45 1025 30.27 854 25.22 20 67.9 51 9.7 49.5
07:50 1025 30.27 854 25.22 20 67.9 52 9.9 49.8
07:55 1025 30.27 854 25.22 19.6 67.2 53 9.8 49.7
08:00 1025 30.27 854 25.22 20 68 50 9.5 49
08:05 1025 30.27 854 25.22 20.5 69 50 9.9 49.9
08:10 1025 30.27 854 25.22 20.3 68.6 51 10 49.9
08:15 1025 30.27 854 25.22 20.6 69.1 50 10 50.1
08:20 1025 30.27 854 25.22 20.7 69.2 51 10.2 50.3
08:25 1025 30.27 854 25.22 21 69.9 49 10.1 50.2
08:30 1025 30.27 854 25.22 20.8 69.4 49 9.7 49.4
08:35 1025 30.27 854 25.22 21.4 70.6 47 9.7 49.5
08:40 1025 30.27 854 25.22 21.7 71 46 9.8 49.7
08:45 1025 30.27 854 25.22 22 71.7 44 9.4 48.9
08:50 1025 30.27 855 25.25 22.7 72.8 43 9.7 49.5
08:55 1025 30.27 854 25.22 22.5 72.5 43 9.4 48.9
09:00 1025 30.27 854 25.22 22.8 73 43 9.7 49.5
09:05 1025 30.27 854 25.22 22.6 72.7 41 9 48.2
09:10 1025 30.27 854 25.22 23.1 73.5 41 9.2 48.6
09:15 1025 30.27 854 25.22 23.2 73.8 41 9.6 49.3
09:20 1025 30.27 854 25.22 22.1 71.9 45 9.7 49.5
09:25 1025 30.27 854 25.22 21.9 71.5 45 9.8 49.6
09:30 1025 30.27 854 25.22 22.4 72.2 43 9.4 48.9
09:35 1025 30.27 854 25.22 22.9 73.3 40 8.9 48.1
09:40 1025 30.27 854 25.22 23.5 74.3 39 9 48.1
09:45 1025 30.27 854 25.22 23.3 74 41 9.4 49
09:50 1025 30.27 854 25.22 23.4 74.1 41 9.4 49
09:55 1025 30.27 854 25.22 23.3 74 40 9.3 48.7
10:00 1025 30.27 854 25.22 23 73.4 42 9.4 49
10:05 1025 30.27 854 25.22 23.5 74.3 41 9.5 49.2
10:10 1025 30.27 854 25.22 23.6 74.4 38 8.8 47.9
10:15 1025 30.27 854 25.22 24.7 76.4 36 8.7 47.7
10:20 1025 30.27 854 25.22 24.8 76.7 35 8.7 47.7
10:25 1025 30.27 854 25.22 24.8 76.6 35 8.6 47.5
10:30 1025 30.27 854 25.22 24.8 76.6 35 8.5 47.3
10:35 1025 30.27 854 25.22 25.2 77.3 35 8.9 48
10:40 1025 30.27 854 25.22 25.1 77.1 35 8.7 47.7
10:45 1025 30.27 854 25.22 25.2 77.3 34 8.5 47.2
10:50 1025 30.27 854 25.22 25.5 77.9 33 8.5 47.3
10:55 1025 30.27 854 25.22 25.8 78.4 32 8.2 46.7
11:00 1025 30.27 854 25.22 26 78.8 33 8.6 47.5
11:05 1025 30.27 854 25.22 25.6 78 35 9.2 48.5
11:10 1025 30.27 854 25.22 24.1 75.4 36 8.3 47
11:15 1025 30.27 854 25.22 25.1 77.2 34 8.4 47.2
11:20 1025 30.27 854 25.22 26.1 78.9 32 8.4 47.1
11:25 1025 30.27 854 25.22 25.6 78.2 34 8.9 48
11:30 1025 30.27 854 25.22 25.7 78.3 32 8.2 46.8
11:35 1025 30.27 854 25.22 26.6 79.8 32 8.7 47.6
11:40 1025 30.27 854 25.22 27 80.6 30 8.4 47.2
11:45 1025 30.27 854 25.22 27.1 80.8 30 8.2 46.8
11:50 1025 30.27 854 25.22 27 80.5 30 8.1 46.7
11:55 1025 30.27 854 25.22 27 80.6 31 8.7 47.6
12:00 1025 30.27 854 25.22 26.7 80 30 8 46.4
12:05 1025 30.27 854 25.22 27.5 81.4 28 7.8 46
12:10 1025 30.27 854 25.22 27.2 81 29 8 46.4
12:15 1025 30.27 854 25.22 27.2 81 30 8.5 47.3
12:20 1025 30.27 854 25.22 26.1 79 31 8 46.4
12:25 1025 30.27 854 25.22 27.5 81.6 27 7.4 45.4
12:30 1025 30.27 854 25.22 28.2 82.7 27 7.7 45.8
12:35 1025 30.27 854 25.22 27.4 81.3 29 7.9 46.3
12:40 1025 30.27 854 25.22 27.8 82.1 27 7.2 44.9
12:45 1024 30.24 854 25.22 28.2 82.7 27 7.5 45.5
12:50 1024 30.24 854 25.22 28.7 83.6 26 7.6 45.7
12:55 1024 30.24 854 25.22 28.1 82.5 26 7 44.7
13:00 1024 30.24 854 25.22 27.6 81.7 27 7.1 44.8
13:05 1024 30.24 854 25.22 28.1 82.6 26 7.1 44.9
13:10 1024 30.24 853 25.19 28.9 84.1 24 7 44.5
13:15 1024 30.24 853 25.19 29.2 84.5 24 6.9 44.4
13:20 1024 30.24 853 25.19 29.9 85.7 24 7.2 44.9
13:25 1024 30.24 853 25.19 29.1 84.4 24 6.9 44.4
13:30 1024 30.24 853 25.19 29.3 84.7 23 6.3 43.3
13:35 1024 30.24 853 25.19 29.5 85.1 23 6.6 43.9
13:40 1024 30.24 853 25.19 29.2 84.5 22 5.5 41.9
13:45 1024 30.24 853 25.19 28.8 83.9 23 6.2 43.1
13:50 1024 30.24 853 25.19 28.4 83.2 23 5.4 41.7
13:55 1024 30.24 853 25.19 28.3 83 23 5.8 42.4
14:00 1024 30.24 853 25.19 28.2 82.8 23 5.4 41.7
14:05 1024 30.24 853 25.19 28.4 83.1 23 5.8 42.4
14:10 1024 30.24 853 25.19 28.2 82.7 24 5.7 42.3
14:15 1024 30.24 853 25.19 28.4 83.1 23 5.7 42.3
14:20 1024 30.24 853 25.19 28.2 82.7 25 6.3 43.4
14:25 1024 30.24 853 25.19 27.7 81.8 25 5.9 42.7
14:30 1024 30.24 853 25.19 27.6 81.7 24 5.7 42.3
14:35 1024 30.24 853 25.19 27.5 81.5 25 5.8 42.4
14:40 1024 30.24 853 25.19 27.5 81.4 25 5.8 42.5
14:45 1024 30.24 853 25.19 27.5 81.5 24 5.5 41.9
14:50 1024 30.24 853 25.19 27.4 81.2 25 6.2 43.1
14:55 1024 30.24 853 25.19 27 80.6 25 5.8 42.4
15:00 1024 30.24 853 25.19 27.2 80.9 26 6.1 43
15:05 1024 30.24 853 25.19 27.1 80.9 28 7.2 44.9
15:10 1024 30.24 854 25.22 26.3 79.3 35 9.8 49.6
15:15 1025 30.27 854 25.22 23.3 74 45 10.9 51.6
15:20 1025 30.27 854 25.22 22 71.6 49 10.9 51.6
15:25 1025 30.27 854 25.22 21.8 71.2 47 10.1 50.2
15:30 1024 30.24 854 25.22 21.9 71.3 47 10.3 50.5
15:35 1024 30.24 853 25.19 21.8 71.2 46 9.8 49.7
15:40 1024 30.24 854 25.22 22 71.6 44 9.5 49.1
15:45 1024 30.24 853 25.19 21.7 71.1 46 9.8 49.6
15:50 1024 30.24 854 25.22 21.4 70.6 45 9.3 48.7
15:55 1024 30.24 854 25.22 21.3 70.3 45 9 48.1
16:00 1025 30.27 854 25.22 21.3 70.4 43 8.4 47.1
16:05 1025 30.27 854 25.22 21.5 70.6 42 8.1 46.6
16:10 1025 30.27 854 25.22 21.3 70.4 42 7.9 46.3
16:15 1025 30.27 854 25.22 21.3 70.4 42 7.9 46.2
16:20 1025 30.27 854 25.22 21.3 70.4 42 7.9 46.3
16:25 1025 30.27 854 25.22 21.4 70.4 41 7.7 45.8
16:30 1025 30.27 854 25.22 21.2 70.2 44 8.7 47.7
16:35 1024 30.24 854 25.22 20.9 69.7 43 8.1 46.6
16:40 1024 30.24 853 25.19 21.5 70.7 40 7.6 45.8
16:45 1024 30.24 853 25.19 22.7 72.8 34 6.4 43.5
16:50 1024 30.24 853 25.19 24.3 75.7 32 6.9 44.4
16:55 1024 30.24 854 25.22 25 77 32 7.2 45
17:00 1024 30.24 854 25.22 24.2 75.6 35 7.9 46.3
17:05 1024 30.24 853 25.19 23.9 75.1 33 6.8 44.2
17:10 1024 30.24 853 25.19 24.1 75.4 33 6.9 44.4
17:15 1024 30.24 853 25.19 24.1 75.3 30 5.5 41.9
17:20 1024 30.24 853 25.19 24.7 76.5 31 6.6 44
17:25 1024 30.24 853 25.19 24.8 76.6 30 6.3 43.4
17:30 1024 30.24 853 25.19 24.2 75.6 35 7.9 46.2
17:35 1024 30.24 853 25.19 24.3 75.8 32 6.9 44.4
17:40 1024 30.24 853 25.19 24.7 76.4 33 7.6 45.6
17:45 1024 30.24 853 25.19 25.1 77.2 31 6.9 44.4
17:50 1024 30.24 853 25.19 25.4 77.8 31 7.5 45.5
17:55 1024 30.24 853 25.19 25.7 78.3 30 7.2 44.9
18:00 1024 30.24 853 25.19 25.7 78.2 31 7.4 45.3
18:05 1024 30.24 853 25.19 25.9 78.6 29 6.9 44.4
18:10 1024 30.24 853 25.19 26.1 78.9 31 7.8 46
18:15 1024 30.24 853 25.19 25.7 78.2 29 6.5 43.8
18:20 1024 30.24 853 25.19 25.6 78 31 7.6 45.6
18:25 1024 30.24 853 25.19 25.3 77.5 31 7 44.7
18:30 1023 30.21 853 25.19 25.2 77.3 33 8.1 46.6
18:35 1023 30.21 853 25.19 25.3 77.5 33 7.9 46.3
18:40 1023 30.21 853 25.19 25.3 77.6 35 8.9 48.1
18:45 1023 30.21 853 25.19 25.3 77.6 34 8.4 47.2
18:50 1023 30.21 852 25.16 25.4 77.6 36 9.4 48.9
18:55 1023 30.21 852 25.16 25.3 77.5 35 9.1 48.4
19:00 1023 30.21 852 25.16 25.3 77.6 35 8.9 48.1
19:05 1023 30.21 852 25.16 25.2 77.3 36 9.3 48.7
19:10 1023 30.21 852 25.16 25.1 77.1 37 9.7 49.4
19:15 1023 30.21 852 25.16 24.9 76.9 38 9.9 49.8
19:20 1023 30.21 852 25.16 24.9 76.9 39 10.1 50.1
19:25 1023 30.21 853 25.19 24.9 76.7 33 7.5 45.5
19:30 1023 30.21 853 25.19 24.9 76.8 33 7.9 46.2
19:35 1023 30.21 853 25.19 24.9 76.8 41 11.1 52
19:40 1023 30.21 853 25.19 24.2 75.6 45 11.9 53.3
19:45 1023 30.21 853 25.19 23.7 74.6 41 10 49.9
19:50 1023 30.21 853 25.19 23.2 73.8 43 10.3 50.6
19:55 1023 30.21 853 25.19 23 73.3 45 10.5 51
20:00 1023 30.21 853 25.19 22.8 73 48 11.2 52.2
20:05 1024 30.24 853 25.19 22.6 72.7 48 11.2 52.1
20:10 1024 30.24 853 25.19 22.7 72.8 43 9.6 49.3
20:15 1024 30.24 853 25.19 22.6 72.8 43 9.7 49.5
20:20 1024 30.24 853 25.19 22.3 72.1 52 12.2 53.9
20:25 1024 30.24 853 25.19 21.8 71.2 53 12 53.6
20:30 1024 30.24 853 25.19 21.3 70.4 57 12.6 54.6
20:35 1024 30.24 853 25.19 21.2 70.1 58 12.6 54.7
20:40 1024 30.24 853 25.19 21.2 70.1 48 9.8 49.6
20:45 1024 30.24 853 25.19 21.3 70.3 47 9.8 49.7
20:50 1024 30.24 853 25.19 21.4 70.5 45 9.1 48.5
20:55 1024 30.24 853 25.19 21.2 70.2 47 9.7 49.5
21:00 1024 30.24 853 25.19 20.9 69.7 47 9.5 49
21:05 1024 30.24 853 25.19 20.8 69.4 43 7.9 46.2
21:10 1024 30.24 853 25.19 21.1 69.9 39 6.9 44.5
21:15 1024 30.24 853 25.19 21.7 71.1 38 7.1 44.9
21:20 1024 30.24 853 25.19 22 71.6 40 8.1 46.5
21:25 1024 30.24 854 25.22 21.6 70.8 45 9.2 48.6
21:30 1024 30.24 854 25.22 20.9 69.5 48 9.5 49.2
21:35 1024 30.24 854 25.22 20.4 68.8 49 9.6 49.3
21:40 1024 30.24 854 25.22 20.2 68.3 51 9.7 49.5
21:45 1025 30.27 854 25.22 19.9 67.7 52 9.7 49.5
21:50 1024 30.24 854 25.22 19.7 67.4 53 10 49.9
21:55 1024 30.24 854 25.22 19.6 67.2 54 10.1 50.3
22:00 1024 30.24 854 25.22 19.4 67 55 10.2 50.4
22:05 1024 30.24 854 25.22 19.4 66.8 55 10.2 50.4
22:10 1024 30.24 854 25.22 19.3 66.7 55 10.2 50.3
22:15 1025 30.27 854 25.22 19.2 66.6 56 10.3 50.6
22:20 1024 30.24 854 25.22 19.1 66.3 57 10.4 50.8
22:25 1024 30.24 854 25.22 19 66.2 57 10.4 50.7
22:30 1024 30.24 854 25.22 18.9 66.1 58 10.5 50.9
22:35 1024 30.24 854 25.22 18.9 66.1 58 10.5 51
22:40 1024 30.24 854 25.22 18.9 66 58 10.5 51
22:45 1024 30.24 854 25.22 18.8 65.9 59 10.6 51.2
22:50 1024 30.24 854 25.22 18.7 65.6 58 10.5 50.9
22:55 1024 30.24 853 25.19 18.7 65.7 59 10.6 51
23:00 1024 30.24 853 25.19 18.7 65.6 59 10.7 51.2
23:05 1024 30.24 854 25.22 18.6 65.6 59 10.7 51.2
23:10 1024 30.24 854 25.22 18.5 65.3 59 10.5 51
23:15 1024 30.24 853 25.19 18.6 65.4 58 10.4 50.6
23:20 1024 30.24 853 25.19 18.7 65.6 58 10.5 50.8
23:25 1024 30.24 853 25.19 18.6 65.5 58 10.4 50.7
23:30 1024 30.24 853 25.19 18.6 65.4 58 10.3 50.6
23:35 1024 30.24 853 25.19 18.6 65.5 58 10.3 50.6
23:40 1024 30.24 853 25.19 18.6 65.4 58 10.3 50.5
23:45 1024 30.24 853 25.19 18.6 65.4 58 10.2 50.3
23:50 1024 30.24 853 25.19 18.5 65.2 58 10.2 50.3
23:55 1024 30.24 853 25.19 18.5 65.3 58 10.3 50.5
24:00 1024 30.24 853 25.19 18.3 65 59 10.4 50.6